createdAt,value
2023-03-04T00:02:17.784Z,100374.35
2023-03-04T00:04:45.777Z,100371.45
2023-03-04T00:07:16.843Z,100368.13
2023-03-04T00:09:46.105Z,100361.48
2023-03-04T00:12:13.987Z,100359.64
2023-03-04T00:14:41.901Z,100356.92
2023-03-04T00:17:09.806Z,100351.02
2023-03-04T00:19:37.607Z,100341.23
2023-03-04T00:22:05.613Z,100334.88
2023-03-04T00:24:33.413Z,100323.39
2023-03-04T00:27:01.148Z,100320.56
2023-03-04T00:29:29.590Z,100322.06
2023-03-04T00:31:57.471Z,100321.89
2023-03-04T00:34:25.314Z,100318.38
2023-03-04T00:36:53.301Z,100315.98
2023-03-04T00:39:21.090Z,100315.57
2023-03-04T00:41:49.077Z,100316.27
2023-03-04T00:44:17.267Z,100311.64
2023-03-04T00:46:45.009Z,100311.67
2023-03-04T00:49:12.767Z,100309.79
2023-03-04T00:51:40.580Z,100300.95
2023-03-04T00:54:08.370Z,100298.42
2023-03-04T00:56:36.159Z,100297.89
2023-03-04T00:59:04.674Z,100296.20
2023-03-04T01:01:32.677Z,100298.81
2023-03-04T01:04:00.453Z,100289.34
2023-03-04T01:06:28.310Z,100284.73
2023-03-04T01:08:56.227Z,100285.91
2023-03-04T01:11:24.122Z,100289.86
2023-03-04T01:13:52.048Z,100290.10
2023-03-04T01:16:19.874Z,100282.25
2023-03-04T01:18:49.018Z,100283.84
2023-03-04T01:21:17.268Z,100269.59
2023-03-04T01:23:45.023Z,100270.05
2023-03-04T01:26:12.792Z,100271.04
2023-03-04T01:28:40.612Z,100266.77
2023-03-04T01:31:08.520Z,100258.21
2023-03-04T01:33:36.330Z,100256.09
2023-03-04T01:36:04.614Z,100249.27
2023-03-04T01:38:32.425Z,100242.13
2023-03-04T01:41:00.817Z,100242.15
2023-03-04T01:43:30.339Z,100240.55
2023-03-04T01:45:58.622Z,100233.39
2023-03-04T01:48:34.142Z,100242.45
2023-03-04T01:51:05.190Z,100243.42
2023-03-04T01:53:33.709Z,100231.12
2023-03-04T01:56:05.712Z,100234.19
2023-03-04T01:58:33.742Z,100229.06
2023-03-04T02:01:01.530Z,100233.70
2023-03-04T02:03:29.355Z,100227.33
2023-03-04T02:05:57.265Z,100223.41
2023-03-04T02:08:25.164Z,100220.02
2023-03-04T02:10:54.421Z,100220.95
2023-03-04T02:13:23.328Z,100223.77
2023-03-04T02:15:53.103Z,100219.54
2023-03-04T02:18:23.753Z,100221.26
2023-03-04T02:20:57.207Z,100214.97
2023-03-04T02:23:38.457Z,100224.95
2023-03-04T02:26:09.577Z,100218.52
2023-03-04T02:28:37.374Z,100218.23
2023-03-04T02:31:05.806Z,100217.72
2023-03-04T02:33:34.117Z,100206.79
2023-03-04T02:36:01.905Z,100204.06
2023-03-04T02:38:29.842Z,100204.55
2023-03-04T02:40:58.324Z,100203.87
2023-03-04T02:43:26.340Z,100201.07
2023-03-04T02:45:54.187Z,100205.52
2023-03-04T02:48:24.075Z,100195.56
2023-03-04T02:50:53.459Z,100194.46
2023-03-04T02:53:22.490Z,100193.73
2023-03-04T02:55:50.464Z,100198.56
2023-03-04T02:58:19.898Z,100187.84
2023-03-04T03:00:48.087Z,100195.85
2023-03-04T03:03:15.961Z,100190.83
2023-03-04T03:05:44.043Z,100188.83
2023-03-04T03:08:12.066Z,100181.61
2023-03-04T03:10:40.357Z,100183.19
2023-03-04T03:13:08.879Z,100191.48
2023-03-04T03:15:42.175Z,100185.34
2023-03-04T03:18:10.967Z,100179.27
2023-03-04T03:20:38.726Z,100185.33
2023-03-04T03:23:06.455Z,100173.27
2023-03-04T03:25:34.294Z,100176.54
2023-03-04T03:28:02.117Z,100170.68
2023-03-04T03:30:29.988Z,100164.51
2023-03-04T03:32:58.418Z,100170.29
2023-03-04T03:35:26.457Z,100164.65
2023-03-04T03:37:54.350Z,100158.08
2023-03-04T03:40:22.163Z,100159.52
2023-03-04T03:42:50.077Z,100151.89
2023-03-04T03:45:17.868Z,100155.29
2023-03-04T03:47:45.664Z,100144.31
2023-03-04T03:50:13.374Z,100145.60
2023-03-04T03:52:41.128Z,100141.08
2023-03-04T03:55:09.651Z,100137.13
2023-03-04T03:57:37.712Z,100128.65
2023-03-04T04:00:06.824Z,100135.23
2023-03-04T04:02:40.389Z,100131.05
2023-03-04T04:05:09.471Z,100136.88
2023-03-04T04:07:37.542Z,100145.00
2023-03-04T04:10:06.005Z,100137.29
2023-03-04T04:12:33.796Z,100141.60
2023-03-04T04:15:01.569Z,100141.00
2023-03-04T04:17:29.491Z,100141.14
2023-03-04T04:19:57.528Z,100133.52
2023-03-04T04:22:25.913Z,100129.27
2023-03-04T04:24:53.900Z,100138.02
2023-03-04T04:27:22.592Z,100130.55
2023-03-04T04:29:50.397Z,100124.81
2023-03-04T04:32:18.227Z,100128.77
2023-03-04T04:34:46.243Z,100119.56
2023-03-04T04:37:14.034Z,100110.52
2023-03-04T04:39:41.959Z,100106.58
2023-03-04T04:42:11.444Z,100097.92
2023-03-04T04:44:39.277Z,100099.10
2023-03-04T04:47:07.316Z,100094.48
2023-03-04T04:49:35.225Z,100098.74
2023-03-04T04:52:03.284Z,100084.18
2023-03-04T04:54:31.241Z,100084.98
2023-03-04T04:56:58.998Z,100089.95
2023-03-04T04:59:26.878Z,100077.75
2023-03-04T05:01:54.626Z,100073.50
2023-03-04T05:04:22.472Z,100076.92
2023-03-04T05:06:50.233Z,100076.47
2023-03-04T05:09:19.432Z,100078.69
2023-03-04T05:11:47.177Z,100079.61
2023-03-04T05:14:15.284Z,100083.55
2023-03-04T05:16:43.301Z,100086.02
2023-03-04T05:19:11.701Z,100090.80
2023-03-04T05:21:39.450Z,100088.23
2023-03-04T05:24:07.712Z,100097.71
2023-03-04T05:26:35.757Z,100097.31
2023-03-04T05:29:04.223Z,100092.09
2023-03-04T05:31:32.144Z,100095.86
2023-03-04T05:33:59.921Z,100101.20
2023-03-04T05:36:27.856Z,100099.70
2023-03-04T05:38:57.219Z,100097.79
2023-03-04T05:41:57.950Z,100097.05
2023-03-04T05:44:26.661Z,100098.77
2023-03-04T05:46:54.629Z,100098.77
2023-03-04T05:49:22.632Z,100103.83
2023-03-04T05:51:50.787Z,100101.84
2023-03-04T05:54:18.629Z,100112.45
2023-03-04T05:56:46.370Z,100099.52
2023-03-04T05:59:20.376Z,100095.89
2023-03-04T06:01:48.357Z,100098.94
2023-03-04T06:04:16.298Z,100100.23
2023-03-04T06:06:46.541Z,100103.27
2023-03-04T06:09:15.105Z,100095.34
2023-03-04T06:11:42.911Z,100087.20
2023-03-04T06:14:10.865Z,100097.45
2023-03-04T06:16:38.668Z,100103.01
2023-03-04T06:19:06.499Z,100101.17
2023-03-04T06:21:34.429Z,100105.88
2023-03-04T06:24:02.296Z,100105.33
2023-03-04T06:26:30.157Z,100106.02
2023-03-04T06:28:57.990Z,100105.79
2023-03-04T06:31:25.867Z,100110.67
2023-03-04T06:33:53.667Z,100116.19
2023-03-04T06:36:21.404Z,100109.82
2023-03-04T06:38:49.189Z,100110.15
2023-03-04T06:41:17.161Z,100105.31
2023-03-04T06:43:45.209Z,100107.10
2023-03-04T06:46:12.981Z,100115.88
2023-03-04T06:48:40.823Z,100110.06
2023-03-04T06:51:10.320Z,100106.41
2023-03-04T06:53:39.159Z,100108.77
2023-03-04T06:56:08.748Z,100109.49
2023-03-04T06:58:36.991Z,100110.27
2023-03-04T07:01:17.288Z,100109.86
2023-03-04T07:03:45.970Z,100113.71
2023-03-04T07:06:15.288Z,100109.70
2023-03-04T07:08:43.475Z,100112.77
2023-03-04T07:11:11.627Z,100116.55
2023-03-04T07:13:39.718Z,100106.36
2023-03-04T07:16:09.514Z,100111.92
2023-03-04T07:18:37.960Z,100112.30
2023-03-04T07:21:06.643Z,100114.05
2023-03-04T07:23:35.001Z,100115.05
2023-03-04T07:26:03.974Z,100116.98
2023-03-04T07:28:31.905Z,100116.05
2023-03-04T07:31:11.435Z,100115.66
2023-03-04T07:33:39.331Z,100110.86
2023-03-04T07:36:07.411Z,100112.23
2023-03-04T07:38:35.272Z,100109.61
2023-03-04T07:41:03.364Z,100115.59
2023-03-04T07:43:31.351Z,100111.31
2023-03-04T07:46:01.326Z,100112.03
2023-03-04T07:48:29.210Z,100110.15
2023-03-04T07:51:14.619Z,100107.87
2023-03-04T07:53:45.604Z,100107.39
2023-03-04T07:56:16.344Z,100104.73
2023-03-04T07:58:44.783Z,100105.23
2023-03-04T08:01:17.988Z,100102.86
2023-03-04T08:03:46.138Z,100102.19
2023-03-04T08:06:17.293Z,100104.81
2023-03-04T08:08:45.994Z,100094.29
2023-03-04T08:11:21.027Z,100093.46
2023-03-04T08:13:49.546Z,100094.32
2023-03-04T08:16:19.186Z,100084.39
2023-03-04T08:18:49.130Z,100086.46
2023-03-04T08:21:19.416Z,100086.08
2023-03-04T08:23:47.789Z,100088.73
2023-03-04T08:26:18.050Z,100084.91
2023-03-04T08:28:46.019Z,100080.45
2023-03-04T08:31:14.584Z,100076.77
2023-03-04T08:33:42.496Z,100081.17
2023-03-04T08:36:10.548Z,100072.83
2023-03-04T08:38:38.377Z,100077.30
2023-03-04T08:41:06.473Z,100070.23
2023-03-04T08:43:34.897Z,100077.94
2023-03-04T08:46:03.088Z,100078.93
2023-03-04T08:48:30.941Z,100072.06
2023-03-04T08:50:58.968Z,100075.58
2023-03-04T08:53:26.771Z,100074.07
2023-03-04T08:55:54.707Z,100075.75
2023-03-04T08:58:22.453Z,100071.55
2023-03-04T14:22:01.311Z,99884.23
2023-03-04T14:24:30.923Z,99888.91
2023-03-04T14:27:11.812Z,99889.76
2023-03-04T14:29:39.753Z,99896.30
2023-03-04T14:32:08.158Z,99899.65
2023-03-04T14:34:39.324Z,99900.33
2023-03-04T14:37:21.477Z,99900.89
2023-03-04T14:39:58.038Z,99894.01
2023-03-04T14:42:34.140Z,99898.80
2023-03-04T14:45:02.272Z,99896.23
2023-03-04T14:47:36.724Z,99892.85
2023-03-04T14:50:15.978Z,99894.70
2023-03-04T14:52:46.671Z,99894.02
2023-03-04T14:55:26.549Z,99888.55
2023-03-04T14:58:06.945Z,99887.02
2023-03-04T15:00:37.188Z,99887.49
2023-03-04T15:03:18.517Z,99886.88
2023-03-04T15:05:47.813Z,99889.75
2023-03-04T15:08:24.245Z,99889.85
2023-03-04T15:11:01.860Z,99889.02
2023-03-04T15:13:49.680Z,99889.42
2023-03-04T15:16:19.984Z,99882.88
2023-03-04T15:19:05.772Z,99883.70
2023-03-04T15:21:41.032Z,99886.84
2023-03-04T15:24:11.116Z,99881.02
2023-03-04T15:26:40.828Z,99877.90
2023-03-04T15:29:17.423Z,99878.77
2023-03-04T15:31:48.424Z,99880.92
2023-03-04T15:34:18.557Z,99883.73
2023-03-04T15:36:49.272Z,99877.99
2023-03-04T15:39:18.988Z,99876.05
2023-03-04T15:41:48.273Z,99882.43
2023-03-04T15:44:16.283Z,99885.16
2023-03-04T15:46:44.188Z,99879.06
2023-03-04T15:49:11.954Z,99871.66
2023-03-04T15:51:40.013Z,99873.22
2023-03-04T15:54:14.319Z,99873.73
2023-03-04T15:56:42.251Z,99877.58
2023-03-04T15:59:12.736Z,99881.71
2023-03-04T16:01:40.709Z,99881.05
2023-03-04T16:04:14.602Z,99879.71
2023-03-04T16:06:43.978Z,99883.66
2023-03-04T16:09:17.074Z,99884.82
2023-03-04T16:11:47.566Z,99881.98
2023-03-04T16:14:16.661Z,99885.26
2023-03-04T16:16:46.587Z,99885.98
2023-03-04T16:19:14.352Z,99887.25
2023-03-04T16:21:42.205Z,99887.44
2023-03-04T16:24:18.285Z,99888.27
2023-03-04T16:26:46.451Z,99888.21
2023-03-04T16:29:15.827Z,99890.38
2023-03-04T16:31:43.712Z,99891.27
2023-03-04T16:34:11.727Z,99890.49
2023-03-04T16:36:39.826Z,99888.20
2023-03-04T16:39:12.944Z,99888.51
2023-03-04T16:41:40.665Z,99890.65
2023-03-04T16:44:14.147Z,99895.31
2023-03-04T16:46:42.312Z,99899.13
2023-03-04T16:49:10.457Z,99902.98
2023-03-04T16:51:44.498Z,99905.61
2023-03-04T16:54:15.641Z,99910.64
2023-03-04T16:56:43.400Z,99912.79
2023-03-04T16:59:16.393Z,99916.65
2023-03-04T17:01:44.515Z,99923.95
2023-03-04T17:04:12.362Z,99923.00
2023-03-04T17:06:40.195Z,99926.38
2023-03-04T17:09:08.369Z,99927.34
2023-03-04T17:11:36.279Z,99930.64
2023-03-04T17:14:04.061Z,99934.11
2023-03-04T17:16:33.048Z,99939.39
2023-03-04T17:19:00.741Z,99942.79
2023-03-04T17:21:28.499Z,99945.05
2023-03-04T17:23:56.357Z,99942.13
2023-03-04T17:26:24.106Z,99949.27
2023-03-04T17:28:52.046Z,99947.77
2023-03-04T17:31:20.808Z,99953.30
2023-03-04T17:33:48.827Z,99949.95
2023-03-04T17:36:19.030Z,99954.88
2023-03-04T17:38:49.452Z,99950.63
2023-03-04T17:41:18.777Z,99950.47
2023-03-04T17:43:51.107Z,99956.94
2023-03-04T17:46:22.027Z,99950.46
2023-03-04T17:48:52.821Z,99954.66
2023-03-04T17:51:23.916Z,99954.36
2023-03-04T17:53:51.643Z,99959.21
2023-03-04T17:56:19.439Z,99963.52
2023-03-04T17:58:51.021Z,99962.77
2023-03-04T18:01:20.419Z,99957.55
2023-03-04T18:03:48.902Z,99957.59
2023-03-04T18:06:17.351Z,99961.34
2023-03-04T18:08:45.906Z,99959.39
2023-03-04T18:11:14.330Z,99960.41
2023-03-04T18:13:44.661Z,99962.81
2023-03-04T18:16:14.740Z,99963.69
2023-03-04T18:18:43.415Z,99964.90
2023-03-04T18:21:11.433Z,99968.21
2023-03-04T18:23:39.576Z,99968.52
2023-03-04T18:26:07.391Z,99967.98
2023-03-04T18:28:35.461Z,99963.16
2023-03-04T18:31:03.904Z,99968.20
2023-03-04T18:33:32.597Z,99970.95
2023-03-04T18:36:02.552Z,99970.48
2023-03-04T18:38:31.439Z,99971.46
2023-03-04T18:41:06.223Z,99973.34
2023-03-04T18:43:35.532Z,99977.17
2023-03-04T18:46:18.323Z,99974.92
2023-03-04T18:48:50.520Z,99974.80
2023-03-04T18:51:18.484Z,99977.73
2023-03-04T18:53:46.351Z,99978.80
2023-03-04T18:56:21.156Z,99984.23
2023-03-04T18:58:51.625Z,99986.50
2023-03-04T19:01:22.947Z,99990.58
2023-03-04T19:03:51.101Z,99997.20
2023-03-04T19:06:19.239Z,100000.23
2023-03-04T19:08:51.267Z,100002.56
2023-03-04T19:11:24.861Z,100010.34
2023-03-04T19:13:52.996Z,100010.10
2023-03-04T19:16:27.931Z,100010.90
2023-03-04T19:18:59.370Z,100006.59
2023-03-04T19:21:27.550Z,100010.83
2023-03-04T19:23:55.903Z,100011.98
2023-03-04T19:26:23.864Z,100009.13
2023-03-04T19:28:51.917Z,100011.70
2023-03-04T19:31:19.861Z,100009.48
2023-03-04T19:33:47.948Z,100013.26
2023-03-04T19:36:16.387Z,100016.55
2023-03-04T19:38:44.345Z,100014.48
2023-03-04T19:41:17.484Z,100018.49
2023-03-04T19:43:46.127Z,100019.27
2023-03-04T19:46:14.062Z,100023.80
2023-03-04T19:48:42.158Z,100026.52
2023-03-04T19:51:18.762Z,100023.01
2023-03-04T19:53:47.730Z,100025.83
2023-03-04T19:56:16.097Z,100025.59
2023-03-04T19:58:44.099Z,100026.13
2023-03-04T20:01:35.724Z,100028.64
2023-03-04T20:04:07.194Z,100028.38
2023-03-04T20:06:36.864Z,100029.46
2023-03-04T20:09:05.536Z,100035.50
2023-03-04T20:11:39.186Z,100036.02
2023-03-04T20:14:09.302Z,100039.81
2023-03-04T20:16:39.030Z,100039.53
2023-03-04T20:19:07.008Z,100043.80
2023-03-04T20:21:39.426Z,100043.70
2023-03-04T20:24:08.602Z,100044.42
2023-03-04T20:26:39.669Z,100043.45
2023-03-04T20:29:08.145Z,100041.00
2023-03-04T20:31:38.440Z,100039.27
2023-03-04T20:34:07.876Z,100039.41
2023-03-04T20:36:38.456Z,100038.10
2023-03-04T20:39:18.304Z,100038.05
2023-03-04T20:41:56.363Z,100041.14
2023-03-04T20:44:24.520Z,100046.59
2023-03-04T20:46:52.449Z,100046.91
2023-03-04T20:49:24.109Z,100038.95
2023-03-04T20:51:58.080Z,100038.57
2023-03-04T20:54:25.849Z,100036.67
2023-03-04T20:56:53.599Z,100030.09
2023-03-04T20:59:22.505Z,100027.67
2023-03-04T21:01:50.950Z,100028.64
2023-03-04T21:04:19.949Z,100031.53
2023-03-04T21:06:48.426Z,100038.84
2023-03-04T21:09:18.323Z,100039.09
2023-03-04T21:11:46.317Z,100037.94
2023-03-04T21:14:17.155Z,100035.60
2023-03-04T21:16:46.083Z,100039.39
2023-03-04T21:19:20.206Z,100037.64
2023-03-04T21:21:49.473Z,100036.83
2023-03-04T21:24:20.645Z,100035.74
2023-03-04T21:26:49.117Z,100036.29
2023-03-04T21:29:22.077Z,100039.36
2023-03-04T21:32:20.839Z,100038.23
2023-03-04T21:34:52.312Z,100037.54
2023-03-04T21:37:21.366Z,100042.19
2023-03-04T21:39:49.162Z,100037.17
2023-03-04T21:42:17.237Z,100039.61
2023-03-04T21:44:50.124Z,100040.45
2023-03-04T21:47:20.202Z,100039.66
2023-03-04T21:49:48.266Z,100039.16
2023-03-04T21:52:20.495Z,100035.40
2023-03-04T21:54:48.457Z,100033.95
2023-03-04T21:57:16.717Z,100031.40
2023-03-04T21:59:45.409Z,100031.80
2023-03-04T22:02:18.354Z,100027.30
2023-03-04T22:04:46.513Z,100030.12
2023-03-04T22:07:14.747Z,100031.63
2023-03-04T22:09:42.715Z,100026.80
2023-03-04T22:12:10.623Z,100027.45
2023-03-04T22:14:38.337Z,100023.57
2023-03-04T22:17:06.586Z,100023.81
2023-03-04T22:19:34.702Z,100020.96
2023-03-04T22:22:02.588Z,100025.19
2023-03-04T22:24:30.415Z,100023.36
2023-03-04T22:27:00.014Z,100020.55
2023-03-04T22:29:27.857Z,100022.73
2023-03-04T22:31:56.038Z,100018.29
2023-03-04T22:34:24.196Z,100019.40
2023-03-04T22:36:51.983Z,100022.76
2023-03-04T22:39:19.764Z,100022.79
2023-03-04T22:41:48.322Z,100014.83
2023-03-04T22:44:16.180Z,100019.30
2023-03-04T22:46:44.636Z,100025.59
2023-03-04T22:49:13.900Z,100025.27
2023-03-04T22:51:43.224Z,100016.08
2023-03-04T22:54:15.843Z,100017.77
2023-03-04T22:56:44.692Z,100020.00
2023-03-04T22:59:12.808Z,100014.79
2023-03-04T23:01:40.969Z,100016.20
2023-03-04T23:04:08.791Z,100012.69
2023-03-04T23:06:37.637Z,100011.89
2023-03-04T23:09:06.047Z,100010.12
2023-03-04T23:11:35.653Z,100011.11
2023-03-04T23:14:06.923Z,100006.53
2023-03-04T23:16:43.075Z,100014.52
2023-03-04T23:19:16.553Z,100016.30
2023-03-04T23:21:44.653Z,100013.42
2023-03-04T23:24:13.169Z,100010.58
2023-03-04T23:26:41.772Z,100008.46
2023-03-04T23:29:12.020Z,100010.51
2023-03-04T23:31:39.777Z,100003.45
2023-03-04T23:34:07.532Z,100002.15
2023-03-04T23:36:36.374Z,100000.55
2023-03-04T23:39:06.484Z,99999.83
2023-03-04T23:41:35.054Z,99999.88
2023-03-04T23:44:03.790Z,100001.91
2023-03-04T23:46:31.932Z,100001.07
2023-03-04T23:49:00.552Z,99993.96
2023-03-04T23:51:29.184Z,99999.50
2023-03-04T23:53:57.241Z,99999.59
2023-03-04T23:56:27.844Z,99997.21
2023-03-04T23:58:56.491Z,99996.60
